• Join FlightAware (Why Join?)
  • Login
  • US Flag 
10:22PM EDT


 

Airport Tracker/Info


-or-


 

Live Flight TrackerFlight Track Log ✈ EJA929 ✈ 24-May-2013 ✈ KMDW - KCON

Flight Track Log - Related Links

Times and Time Zones

All times are in EDT time to prevent confusion due to time zone crossing. See the EJA929 flight status page for this flight to view local times or setup timezone preferences in your user account.

Time Position Orientation Groundspeed Altitude Reporting Facility
EDT Latitude Longitude Course Direction KTS MPH feet Rate Location/Type
07:55AM 41.8000 -87.5833 90° East 252 290 5,000  Level Chicago TRACON
07:56AM 41.8000 -87.5000 90° East 260 299 5,400 1,980 Climbing Chicago TRACON
07:57AM 41.7833 -87.3833 101° East 288 331 8,800 2,940 Climbing Chicago TRACON
07:58AM 41.7875 -87.3803 29° Northeast 287 330 9,100 2,820 Climbing Chicago Center
07:59AM 41.7794 -87.2694 96° East 300 345 12,400 3,120 Climbing Chicago Center
08:00AM 41.7529 -86.7297 84° East  Level FlightAware Approximate
08:00AM 41.7678 -87.1289 96° East 318 366 15,500  Level Chicago Center
08:01AM 41.7617 -86.9989 94° East 351 404 17,700 1,920 Climbing Chicago Center
08:02AM 41.7636 -86.8631 89° East 366 421 19,500 2,040 Climbing Chicago Center
08:03AM 41.7650 -86.7164 89° East 393 452 21,900 2,340 Climbing Chicago Center
08:04AM 41.7664 -86.5678 89° East 409 471 24,400 2,460 Climbing Chicago Center
08:05AM 41.7678 -86.4117 89° East 420 483 27,000 2,280 Climbing Chicago Center
08:06AM 41.7811 -86.2500 84° East 436 502 29,200 2,280 Climbing Chicago Center
08:07AM 41.7986 -86.0522 83° East 445 512 31,800 2,220 Climbing Chicago Center
08:08AM 41.8147 -85.8789 83° East 460 529 33,800 1,740 Climbing Chicago Center
08:09AM 41.8294 -85.7019 84° East 470 541 35,400 1,320 Climbing Chicago Center
08:10AM 41.8453 -85.5178 83° East 486 559 36,600 1,380 Climbing Chicago Center
08:11AM 41.8589 -85.3328 84° East 487 560 38,300 1,140 Climbing Chicago Center
08:12AM 41.8744 -85.1478 83° East 494 568 39,000 300 Climbing Chicago Center
08:13AM 41.8897 -84.9578 84° East 508 585 39,000  Level Chicago Center
08:14AM 41.9044 -84.7614 84° East 527 606 39,000  Level Chicago Center
08:15AM 41.9194 -84.5633 84° East 531 611 39,000  Level Chicago Center
08:16AM 41.9486 -84.3292 80° East 530 610 39,000  Level Chicago Center
08:16AM 41.9528 -84.2689 85° East 526 605 39,000  Level Cleveland Center
08:17AM 41.9778 -84.0747 80° East 526 605 39,000  Level Cleveland Center
08:19AM 42.0003 -83.8747 81° East 526 605 39,000  Level Cleveland Center
08:19AM 42.0244 -83.6803 80° East 526 605 39,000  Level Cleveland Center
08:21AM 42.0489 -83.4606 81° East 537 618 39,000  Level Cleveland Center
08:22AM 42.0725 -83.2603 81° East 542 624 39,000  Level Cleveland Center
08:22AM 42.0958 -83.0625 81° East 537 618 39,000  Level Cleveland Center
08:24AM 42.1189 -82.8561 81° East 543 625 39,000  Level Cleveland Center
08:24AM 42.1289 -82.6606 86° East 538 619 39,000  Level Cleveland Center
08:25AM 42.1614 -82.4628 77° East 538 619 39,000  Level Cleveland Center
08:26AM 42.1831 -82.2672 81° East 538 619 39,000  Level Cleveland Center
08:28AM 42.2003 -82.0883 83° East 538 619 39,000  Level Cleveland Center
08:28AM 42.2194 -81.8897 83° East 533 613 39,000  Level Cleveland Center
08:29AM 42.2403 -81.6939 82° East 540 621 39,000  Level Cleveland Center
08:31AM 42.2606 -81.4978 82° East 533 613 39,000  Level Cleveland Center
08:32AM 42.2808 -81.2819 83° East 540 621 39,000  Level Cleveland Center
08:33AM 42.2986 -81.0828 83° East 540 621 39,000  Level Cleveland Center
08:33AM 42.3203 -80.8808 82° East 540 621 39,000  Level Cleveland Center
08:35AM 42.3350 -80.6842 84° East 535 616 39,000  Level Cleveland Center
08:36AM 42.3539 -80.4878 83° East 535 616 39,000  Level Cleveland Center
08:37AM 42.3722 -80.2881 83° East 535 616 39,000  Level Cleveland Center
08:38AM 42.3883 -80.0911 84° East 537 618 39,000  Level Cleveland Center
08:39AM 42.4042 -79.9139 83° East 532 612 39,000  Level Cleveland Center
08:40AM 42.4214 -79.7142 83° East 532 612 39,000  Level Cleveland Center
08:41AM 42.4367 -79.5169 84° East 527 606 39,000  Level Cleveland Center
08:42AM 42.4511 -79.3197 84° East 527 606 39,000  Level Cleveland Center
08:43AM 42.4697 -79.1222 83° East 527 606 39,000  Level Cleveland Center
08:44AM 42.4836 -78.9250 84° East 527 606 39,000  Level Cleveland Center
08:44AM 42.4975 -78.7303 84° East 527 606 39,000  Level Cleveland Center
08:46AM 42.5108 -78.5269 85° East 527 606 39,000  Level Cleveland Center
08:47AM 42.5258 -78.3292 84° East 527 606 39,000  Level Cleveland Center
08:48AM 42.5383 -78.1344 85° East 522 601 39,000  Level Cleveland Center
08:49AM 42.5508 -77.9394 85° East 522 601 39,000  Level Cleveland Center
08:50AM 42.5644 -77.7217 85° East 522 601 39,000  Level Cleveland Center
08:50AM 42.5781 -77.5267 85° East 522 601 39,000  Level Cleveland Center
08:53AM 42.6039 -77.0728 85° East 542 624 39,000  Level Boston Center
08:54AM 42.6161 -76.8703 85° East 536 617 39,000  Level Boston Center
08:55AM 42.6281 -76.6678 85° East 536 617 39,000 -240 Level Boston Center
08:56AM 42.6378 -76.4625 86° East 536 617 38,600 -720 Descending Boston Center
08:57AM 42.6489 -76.2569 86° East 536 617 37,600 -840 Descending Boston Center
08:58AM 42.6597 -76.0544 86° East 536 617 37,000 -300 Descending Boston Center
08:59AM 42.6678 -75.8656 87° East 536 617 37,000 -60 Level Boston Center
09:00AM 42.6778 -75.6600 86° East 541 623 36,900  Descending Boston Center
09:01AM 42.6878 -75.4542 86° East 546 628 37,000 -600 Climbing Boston Center
09:02AM 42.6972 -75.2456 86° East 551 634 35,800 -1,980 Descending Boston Center
09:03AM 42.7039 -75.0481 87° East 545 627 33,100 -2,820 Descending Boston Center
09:04AM 42.7125 -74.8478 87° East 532 612 30,200 -2,100 Descending Boston Center
09:05AM 42.7189 -74.6417 88° East 537 618 29,000 -600 Descending Boston Center
09:06AM 42.7267 -74.4356 87° East 537 618 29,000 -360 Level Boston Center
09:07AM 42.7344 -74.2322 87° East 532 612 28,300 -1,140 Descending Boston Center
09:08AM 42.7372 -74.0317 89° East 532 612 26,800 -1,500 Descending Boston Center
09:09AM 42.7461 -73.8367 86° East 532 612 25,300 -1,500 Descending Boston Center
09:10AM 42.7817 -73.6508 75° East 519 597 23,800 -1,200 Descending Boston Center
09:11AM 42.8231 -73.4647 73° East 502 578 23,000 -900 Descending Boston Center
09:12AM 42.8642 -73.2814 73° East 507 583 22,000 -1,080 Descending Boston Center
09:13AM 42.9050 -73.0978 73° East 507 583 20,900 -1,200 Descending Boston Center
09:14AM 42.9433 -72.9025 75° East 499 574 19,600 -960 Descending Boston Center
09:15AM 42.9794 -72.7408 73° East 494 568 19,000 -360 Descending Boston Center
09:16AM 43.0172 -72.5678 73° East 488 562 18,900 -1,740 Descending Boston Center
09:17AM 43.0506 -72.4089 74° East 461 531 15,600 -3,360 Descending Boston Center
09:18AM 43.0797 -72.2667 74° East 385 443 12,200 -3,180 Descending Boston Center
09:19AM 43.1025 -72.1586 74° East 332 382 9,300 -1,980 Descending Boston Center
09:20AM 43.1292 -72.0303 74° East 310 357 8,300 -1,200 Descending Boston Center
09:21AM 43.1494 -71.9306 74° East 305 351 7,000 -660 Descending Boston Center
09:22AM 43.1697 -71.8108 77° East 299 344 7,000 -600 Level Boston Center
09:23AM 43.1217 -71.7575 141° Southeast 217 250 5,900 -1,020 Descending Boston Center
09:24AM 43.0464 -71.7242 162° South 227 261 5,000 -900 Descending Boston Center
09:25AM 42.9897 -71.6850 153° Southeast 250 288 4,100 -480 Descending Boston Center
09:26AM 43.0036 -71.5742 80° East 209 241 4,000 -420 Descending Boston Center
09:27AM 43.0217 -71.4744 76° East 224 258 3,300 -540 Descending Boston Center
09:28AM 43.0564 -71.4228 47° Northeast 205 236 3,000 -600 Descending Boston Center
09:29AM 43.1089 -71.4475 341° North 162 186 2,100 -960 Descending Boston Center
09:29AM 43.1333 -71.4500 356° North 189 217 1,800 -780 Descending KA90
09:30AM 43.1667 -71.4833 324° Northwest 154 177 1,000 -720 Descending KA90
09:33AM 43.2000 -71.5000 336° Northwest  Level FlightAware Approximate
09:40AM 43.2027 -71.5023 336° Northwest  Level Estimated
09:41AM 43.2000 -71.5000 336° Northwest  Level FlightAware Approximate